Latest Weather Observations for Daly Waters

IDD60801

Issued at 11:11 am CST Sunday 29 May 2022 (issued every 10 minutes, with the page automatically refreshed every 10 minutes)

About weather observations | Map of weather stations | Latest weather observations for NT | Other Formats
Station Details ID: 014626 Name: DALY WATERS AIRSTRIP Lat: -16.26 Lon: 133.38 Height: 209.84 m
Data from the previous 72 hours. | See also: Recent months at Daly Waters
Date/Time
CST
Temp
°C
App
Temp
°C
Dew
Point
°C
Rel
Hum
%
Delta-T
°C
Wind Press
QNH
hPa
Press
MSL
hPa
Rain since
9am
mm
Dir  Spd
km/h
Gust
km/h
Spd
kts
Gust
kts
29/11:00am 29.1 25.5 8.2 27 11.5 NNE 17 24 9 13 1013.3 1012.4 0.0
29/10:30am 28.8 25.0 9.0 29 11.0 NNE 19 26 10 14 1013.7 1012.7 0.0
29/10:00am 27.1 24.0 10.3 35 9.5 NNE 17 24 9 13 1014.0 1013.0 0.0
29/09:30am 25.3 23.1 12.2 44 7.6 NE 15 24 8 13 1014.2 1013.2 0.0
29/09:00am 22.5 21.5 14.6 61 4.7 NNE 13 17 7 9 1014.2 1013.2 0.0
29/08:30am 20.0 20.0 12.5 62 4.3 ENE 4 6 2 3 1014.1 1013.1 0.0
29/08:00am 15.4 15.0 8.2 62 3.7 CALM 0 0 0 0 1013.9 1012.9 0.0
29/07:30am 11.9 10.2 5.8 66 2.9 SSW 4 6 2 3 1013.7 1012.7 0.0
29/07:00am 10.8 8.9 4.9 67 2.7 S 4 6 2 3 1013.2 1012.3 0.0
29/06:30am 11.0 9.8 4.7 65 2.9 CALM 0 0 0 0 1012.9 1011.9 0.0
29/06:00am 11.2 9.7 4.9 65 2.9 S 2 4 1 2 1012.9 1011.9 0.0
29/05:30am 11.1 9.5 4.3 63 3.1 S 2 4 1 2 1012.7 1011.7 0.0
29/05:00am 11.4 9.3 3.9 60 3.4 S 4 4 2 2 1012.6 1011.6 0.0
29/04:30am 11.5 9.4 3.8 59 3.5 S 4 4 2 2 1012.6 1011.6 0.0
29/04:00am 11.8 9.7 3.8 58 3.6 S 4 4 2 2 1012.6 1011.6 0.0
29/03:30am 11.9 9.4 3.7 57 3.7 SSE 6 7 3 4 1012.7 1011.7 0.0
29/03:00am 11.9 10.5 3.7 57 3.7 CALM 0 0 0 0 1012.7 1011.7 0.0
29/02:30am 12.0 10.6 3.5 56 3.8 CALM 0 0 0 0 1012.7 1011.7 0.0
29/02:00am 12.6 11.2 3.3 53 4.2 CALM 0 0 0 0 1012.9 1011.9 0.0
29/01:30am 12.8 11.3 3.2 52 4.3 CALM 0 0 0 0 1013.2 1012.3 0.0
29/01:00am 13.4 12.0 3.5 51 4.5 CALM 0 0 0 0 1013.6 1012.6 0.0
29/12:30am 13.8 12.4 3.3 49 4.8 CALM 0 0 0 0 1013.6 1012.6 0.0
29/12:00am 14.7 13.2 3.2 46 5.2 CALM 0 2 0 1 1013.6 1012.6 0.0
 
Date/Time
CST
Temp
°C
App
Temp
°C
Dew
Point
°C
Rel
Hum
%
Delta-T
°C
Wind Press
QNH
hPa
Press
MSL
hPa
Rain since
9am
mm
Dir  Spd
km/h
Gust
km/h
Spd
kts
Gust
kts
28/11:30pm 15.5 12.9 3.0 43 5.7 NNE 6 6 3 3 1013.8 1012.8 0.0
28/11:00pm 15.9 13.3 4.0 45 5.6 NE 7 9 4 5 1013.7 1012.7 0.0
28/10:30pm 15.2 13.7 3.0 44 5.6 CALM 0 0 0 0 1013.6 1012.6 0.0
28/10:00pm 15.8 14.3 2.9 42 5.9 CALM 0 0 0 0 1013.4 1012.5 0.0
28/09:30pm 16.4 14.8 2.4 39 6.4 CALM 0 0 0 0 1013.2 1012.3 0.0
28/09:00pm 17.3 15.3 2.1 36 6.9 ENE 2 2 1 1 1013.1 1012.2 0.0
28/08:30pm 17.9 15.8 1.8 34 7.3 ENE 2 2 1 1 1012.9 1011.9 0.0
28/08:00pm 19.2 17.1 1.7 31 8.0 ENE 2 4 1 2 1012.5 1011.5 0.0
28/07:30pm 20.9 18.3 1.2 27 9.1 ENE 4 4 2 2 1012.2 1011.2 0.0
28/07:00pm 23.2 20.2 0.9 23 10.4 NE 6 6 3 3 1011.7 1010.7 0.0
28/06:30pm 27.1 24.0 0.0 17 12.8 ENE 6 6 3 3 1011.4 1010.4 0.0
28/06:00pm 29.5 26.4 1.1 16 13.9 NE 7 13 4 7 1011.0 1010.0 0.0
28/05:30pm 31.1 27.2 1.4 15 14.8 ENE 11 19 6 10 1010.8 1009.8 0.0
28/05:00pm 31.8 27.3 2.0 15 15.0 NE 15 20 8 11 1010.6 1009.6 0.0
28/04:30pm 32.2 27.7 2.3 15 15.2 NNE 15 24 8 13 1010.5 1009.5 0.0
28/04:00pm 32.1 28.4 2.2 15 15.2 E 11 22 6 12 1010.7 1009.7 0.0
28/03:30pm 32.6 28.7 3.5 16 15.1 E 13 24 7 13 1010.8 1009.8 0.0
28/03:00pm 32.0 27.8 3.9 17 14.7 ENE 15 30 8 16 1011.1 1010.1 0.0
28/02:30pm 32.2 29.0 3.2 16 15.0 ENE 9 19 5 10 1011.2 1010.2 0.0
28/02:00pm 32.1 28.1 3.1 16 14.9 E 13 22 7 12 1011.8 1010.8 0.0
28/01:30pm 31.1 27.2 5.5 20 13.6 ENE 15 26 8 14 1012.6 1011.6 0.0
28/01:00pm 30.7 27.8 6.6 22 13.0 SE 11 22 6 12 1013.3 1012.4 0.0
28/12:30pm 30.3 26.6 6.2 22 12.9 E 15 30 8 16 1013.9 1012.9 0.0
28/12:00pm 29.7 25.6 6.4 23 12.5 ENE 17 24 9 13 1014.4 1013.4 0.0
28/11:30am 29.0 25.1 7.0 25 11.9 E 17 26 9 14 1015.0 1014.0 0.0
28/11:00am 28.0 24.8 8.3 29 10.8 E 15 22 8 12 1015.3 1014.3 0.0
28/10:30am 27.8 25.7 9.6 32 10.2 ESE 11 17 6 9 1015.4 1014.4 0.0
28/10:00am 26.5 24.1 10.2 36 9.2 E 13 19 7 10 1015.6 1014.6 0.0
28/09:30am 25.6 23.6 11.4 41 8.1 E 13 20 7 11 1015.6 1014.6 0.0
28/09:00am 23.4 22.0 10.8 45 7.0 E 9 15 5 8 1015.3 1014.3 0.0
28/08:30am 21.0 19.9 8.3 44 6.7 SE 4 9 2 5 1015.2 1014.2 0.0
28/08:00am 18.1 16.1 4.3 40 6.6 SSE 4 7 2 4 1015.0 1014.0 0.0
28/07:30am 14.3 12.0 4.6 52 4.5 SSE 6 6 3 3 1014.9 1013.9 0.0
28/07:00am 12.2 9.9 4.7 60 3.5 SSE 6 6 3 3 1014.6 1013.6 0.0
28/06:30am 12.3 10.3 4.5 59 3.6 SSE 4 6 2 3 1014.3 1013.3 0.0
28/06:00am 12.5 10.6 4.7 59 3.6 SSE 4 4 2 2 1014.1 1013.1 0.0
28/05:30am 12.9 11.3 4.3 56 4.0 SSE 2 4 1 2 1014.2 1013.2 0.0
28/05:00am 13.0 11.0 4.4 56 4.0 SSE 4 6 2 3 1014.2 1013.2 0.0
28/04:30am 13.1 11.1 4.5 56 4.0 SSE 4 6 2 3 1014.0 1013.0 0.0
28/04:00am 13.1 11.1 4.3 55 4.1 SSE 4 6 2 3 1013.9 1012.9 0.0
28/03:30am 13.3 12.0 4.2 54 4.2 CALM 0 0 0 0 1014.0 1013.0 0.0
28/03:00am 13.5 11.8 4.1 53 4.3 S 2 4 1 2 1014.2 1013.2 0.0
28/02:30am 13.6 11.9 3.9 52 4.5 S 2 7 1 4 1014.4 1013.4 0.0
28/02:00am 14.8 13.4 3.6 47 5.2 CALM 0 0 0 0 1014.6 1013.6 0.0
28/01:30am 16.6 15.2 3.3 41 6.2 CALM 0 4 0 2 1014.7 1013.7 0.0
28/01:00am 14.7 12.6 3.8 48 5.0 SSE 4 6 2 3 1014.4 1013.4 0.0
28/12:30am 15.4 13.6 3.2 44 5.6 SSE 2 4 1 2 1014.5 1013.5 0.0
28/12:00am 16.1 14.3 3.2 42 6.0 SE 2 6 1 3 1014.8 1013.8 0.0
 
Date/Time
CST
Temp
°C
App
Temp
°C
Dew
Point
°C
Rel
Hum
%
Delta-T
°C
Wind Press
QNH
hPa
Press
MSL
hPa
Rain since
9am
mm
Dir  Spd
km/h
Gust
km/h
Spd
kts
Gust
kts
27/11:30pm 18.0 15.7 2.7 36 7.1 SE 4 4 2 2 1015.0 1014.0 0.0
27/11:00pm 19.6 16.8 2.9 33 7.9 SSE 7 11 4 6 1015.0 1014.0 0.0
27/10:30pm 18.6 15.9 2.9 35 7.3 SE 6 9 3 5 1015.1 1014.1 0.0
27/10:00pm 18.3 15.7 3.0 36 7.2 SSE 6 7 3 4 1015.0 1014.0 0.0
27/09:30pm 19.4 16.8 3.2 34 7.7 E 6 6 3 3 1014.8 1013.8 0.0
27/09:00pm 20.9 18.3 3.2 31 8.5 ENE 6 7 3 4 1014.8 1013.8 0.0
27/08:30pm 19.8 17.3 3.5 34 7.8 ENE 6 11 3 6 1014.5 1013.5 0.0
27/08:00pm 20.6 18.0 3.3 32 8.3 SE 6 7 3 4 1014.2 1013.2 0.0
27/07:30pm 21.3 19.0 3.0 30 8.8 SSE 4 6 2 3 1013.8 1012.8 0.0
27/07:00pm 23.3 20.7 3.3 27 9.8 SSE 6 6 3 3 1013.2 1012.3 0.0
27/06:30pm 26.3 24.0 2.9 22 11.6 SSE 4 6 2 3 1012.9 1011.9 0.0
27/06:00pm 29.4 26.7 2.6 18 13.5 SE 6 9 3 5 1012.5 1011.5 0.0
27/05:30pm 30.7 27.3 2.0 16 14.4 ESE 9 15 5 8 1012.2 1011.2 0.0
27/05:00pm 31.1 27.4 2.3 16 14.5 SE 11 20 6 11 1012.0 1011.0 0.0
27/04:30pm 31.3 28.2 3.4 17 14.4 SE 9 17 5 9 1011.8 1010.8 0.0
27/04:00pm 31.5 27.5 2.7 16 14.7 SE 13 19 7 10 1011.9 1010.9 0.0
27/03:30pm 31.9 28.5 3.8 17 14.6 ESE 11 22 6 12 1012.0 1011.0 0.0
27/03:00pm 31.9 28.1 3.8 17 14.6 SE 13 22 7 12 1012.1 1011.1 0.0
27/02:30pm 32.0 28.2 3.9 17 14.7 E 13 20 7 11 1012.3 1011.3 0.0
27/02:00pm 31.4 28.8 4.2 18 14.2 E 7 13 4 7 1012.6 1011.6 0.0
27/01:30pm 31.3 27.6 4.2 18 14.2 ENE 13 26 7 14 1013.1 1012.2 0.0
27/01:00pm 30.6 27.6 5.8 21 13.2 ENE 11 24 6 13 1013.8 1012.8 0.0
27/12:30pm 30.3 26.6 6.2 22 12.9 E 15 24 8 13 1014.3 1013.3 0.0
27/12:00pm 30.1 26.1 6.7 23 12.6 E 17 24 9 13 1014.8 1013.8 0.0
27/11:30am 29.0 25.1 7.0 25 11.9 E 17 28 9 15 1015.1 1014.1 0.0
27/11:00am 28.8 24.6 7.4 26 11.6 ESE 19 28 10 15 1015.4 1014.4 0.0
27/10:30am 28.2 23.9 6.9 26 11.4 E 19 32 10 17 1015.8 1014.8 0.0
27/10:00am 26.8 22.6 5.7 26 11.0 ESE 17 24 9 13 1016.0 1015.0 0.0
27/09:30am 25.5 20.8 5.1 27 10.4 ESE 19 32 10 17 1016.3 1015.3 0.0
27/09:00am 24.8 20.2 3.5 25 10.5 ESE 17 26 9 14 1016.2 1015.2 0.0
27/08:30am 23.5 19.1 2.9 26 10.0 ESE 15 24 8 13 1015.9 1014.9 0.0
27/08:00am 22.1 18.5 2.8 28 9.3 ESE 11 17 6 9 1015.6 1014.6 0.0
27/07:30am 20.8 17.5 2.6 30 8.6 ESE 9 13 5 7 1015.3 1014.3 0.0
27/07:00am 20.1 16.3 2.0 30 8.4 ESE 11 17 6 9 1014.9 1013.9 0.0
27/06:30am 18.9 15.9 1.9 32 7.8 ESE 7 13 4 7 1014.6 1013.6 0.0
27/06:00am 18.1 15.1 2.0 34 7.4 ESE 7 11 4 6 1014.4 1013.4 0.0
27/05:30am 16.8 13.8 2.0 37 6.7 ESE 7 11 4 6 1014.1 1013.1 0.0
27/05:00am 14.8 12.0 2.0 42 5.7 ESE 6 6 3 3 1014.0 1013.0 0.0
27/04:30am 15.8 13.0 2.2 40 6.1 SE 6 7 3 4 1014.0 1013.0 0.0
27/04:00am 17.3 14.4 1.7 35 7.1 ESE 6 7 3 4 1013.9 1012.9 0.0
27/03:30am 18.3 15.5 1.8 33 7.5 E 6 9 3 5 1013.7 1012.7 0.0
27/03:00am 18.6 15.8 2.0 33 7.6 ENE 6 7 3 4 1013.8 1012.8 0.0
27/02:30am 20.2 17.2 2.1 30 8.4 ENE 7 9 4 5 1013.9 1012.9 0.0
27/02:00am 21.0 17.7 2.3 29 8.8 NNE 9 11 5 6 1013.8 1012.8 0.0
27/01:30am 22.7 19.0 2.2 26 9.8 SE 11 19 6 10 1013.6 1012.6 0.0
27/01:00am 22.3 19.0 2.4 27 9.5 SE 9 15 5 8 1013.7 1012.7 0.0
27/12:30am 21.9 19.0 2.6 28 9.2 SE 7 11 4 6 1013.9 1012.9 0.0
27/12:00am 22.1 19.2 2.8 28 9.3 SE 7 9 4 5 1014.2 1013.2 0.0
 
Date/Time
CST
Temp
°C
App
Temp
°C
Dew
Point
°C
Rel
Hum
%
Delta-T
°C
Wind Press
QNH
hPa
Press
MSL
hPa
Rain since
9am
mm
Dir  Spd
km/h
Gust
km/h
Spd
kts
Gust
kts
26/11:30pm 22.7 19.8 2.8 27 9.6 ESE 7 11 4 6 1014.3 1013.3 0.0
26/11:00pm 23.3 20.4 2.7 26 9.9 SE 7 11 4 6 1014.2 1013.2 0.0
26/10:30pm 24.2 20.9 2.4 24 10.5 SSE 9 13 5 7 1014.2 1013.2 0.0
26/10:00pm 24.9 21.2 2.4 23 10.9 SE 11 17 6 9 1014.1 1013.1 0.0
26/09:30pm 24.3 21.1 3.0 25 10.4 SE 9 13 5 7 1014.0 1013.0 0.0
26/09:00pm 24.1 21.0 3.4 26 10.2 SE 9 13 5 7 1013.9 1012.9 0.0
26/08:30pm 23.5 20.7 3.4 27 9.8 SSE 7 9 4 5 1013.7 1012.7 0.0
26/08:00pm 23.5 21.0 4.0 28 9.7 SSE 6 9 3 5 1013.1 1012.2 0.0
26/07:30pm 24.6 22.1 3.8 26 10.3 SE 6 7 3 4 1012.6 1011.6 0.0
26/07:00pm 26.2 23.8 4.1 24 11.2 SE 6 7 3 4 1012.1 1011.1 0.0
26/06:30pm 28.5 25.9 4.1 21 12.5 SE 7 9 4 5 1011.8 1010.8 0.0
26/06:00pm 30.4 27.3 3.4 18 13.8 ESE 9 15 5 8 1011.4 1010.4 0.0
26/05:30pm 31.5 27.6 3.5 17 14.5 SE 13 20 7 11 1011.2 1010.2 0.0
26/05:00pm 32.1 28.5 3.1 16 14.9 SE 11 20 6 11 1011.1 1010.1 0.0
26/04:30pm 32.5 28.2 3.5 16 15.1 ESE 15 22 8 12 1011.0 1010.0 0.0
26/04:00pm 32.7 28.5 3.6 16 15.2 SE 15 24 8 13 1011.0 1010.0 0.0
26/03:30pm 32.7 28.1 3.6 16 15.2 ESE 17 28 9 15 1011.2 1010.2 0.0
26/03:00pm 33.1 29.1 3.0 15 15.6 SSE 13 20 7 11 1011.4 1010.4 0.0
26/02:30pm 33.0 29.0 2.9 15 15.5 E 13 24 7 13 1011.6 1010.6 0.0
26/02:00pm 32.7 29.2 3.6 16 15.2 E 11 22 6 12 1012.1 1011.1 0.0
26/01:30pm 32.9 28.7 3.8 16 15.2 E 15 32 8 17 1012.5 1011.5 0.0
26/01:00pm 32.2 27.9 3.2 16 15.0 ESE 15 22 8 12 1013.2 1012.3 0.0
26/12:30pm 31.5 27.6 3.5 17 14.5 ESE 13 26 7 14 1013.8 1012.8 0.0
26/12:00pm 31.2 26.9 3.3 17 14.3 ESE 15 24 8 13 1014.3 1013.3 0.0
26/11:30am 30.9 27.1 6.0 21 13.4 SE 15 24 8 13 1014.7 1013.7 0.0

Other formats

Comma delimited format used in spreadsheet applications
http://www.bom.gov.au/fwo/IDD60801/IDD60801.94234.axf

JavaScript Object Notation format (JSON) in row-major order
http://www.bom.gov.au/fwo/IDD60801/IDD60801.94234.json

Data quality

Most of these data are generated automatically and are frequently updated. Quality checks on data are not normally performed. It is possible for incorrect values to appear. Refer to information at About Latest Weather Observations and please check the disclaimer before using these data.